sensor_id;sensor_type;location;lat;lon;timestamp;temperature;humidity
11965;DHT22;6042;41.326;19.826;2023-05-07T00:01:13;18.40;99.90
11965;DHT22;6042;41.326;19.826;2023-05-07T00:03:45;18.40;99.90
11965;DHT22;6042;41.326;19.826;2023-05-07T00:06:14;18.30;99.90
11965;DHT22;6042;41.326;19.826;2023-05-07T00:08:43;18.30;99.90
11965;DHT22;6042;41.326;19.826;2023-05-07T00:11:15;18.20;99.90
11965;DHT22;6042;41.326;19.826;2023-05-07T00:13:43;18.20;99.90
11965;DHT22;6042;41.326;19.826;2023-05-07T00:16:12;18.10;99.90
11965;DHT22;6042;41.326;19.826;2023-05-07T00:18:41;18.20;99.90
11965;DHT22;6042;41.326;19.826;2023-05-07T00:21:11;18.10;99.90
11965;DHT22;6042;41.326;19.826;2023-05-07T00:23:39;18.10;99.90
11965;DHT22;6042;41.326;19.826;2023-05-07T00:26:08;17.90;99.90
11965;DHT22;6042;41.326;19.826;2023-05-07T00:28:37;17.90;99.90
11965;DHT22;6042;41.326;19.826;2023-05-07T00:31:05;17.90;99.90
11965;DHT22;6042;41.326;19.826;2023-05-07T00:33:34;17.90;99.90
11965;DHT22;6042;41.326;19.826;2023-05-07T00:36:03;18.00;99.90
11965;DHT22;6042;41.326;19.826;2023-05-07T00:38:34;18.20;99.90
11965;DHT22;6042;41.326;19.826;2023-05-07T00:41:02;18.30;99.90
11965;DHT22;6042;41.326;19.826;2023-05-07T00:43:31;18.10;99.90
11965;DHT22;6042;41.326;19.826;2023-05-07T00:46:02;18.10;99.90
11965;DHT22;6042;41.326;19.826;2023-05-07T00:48:31;18.10;99.90
11965;DHT22;6042;41.326;19.826;2023-05-07T00:51:00;18.00;99.90
11965;DHT22;6042;41.326;19.826;2023-05-07T00:53:28;17.90;99.90
11965;DHT22;6042;41.326;19.826;2023-05-07T00:55:59;17.90;99.90
11965;DHT22;6042;41.326;19.826;2023-05-07T00:58:29;17.90;99.90
11965;DHT22;6042;41.326;19.826;2023-05-07T01:00:58;18.00;99.90
11965;DHT22;6042;41.326;19.826;2023-05-07T01:03:27;18.00;99.90
11965;DHT22;6042;41.326;19.826;2023-05-07T01:05:57;18.00;99.90
11965;DHT22;6042;41.326;19.826;2023-05-07T01:08:29;18.00;99.90
11965;DHT22;6042;41.326;19.826;2023-05-07T01:10:59;18.10;99.90
11965;DHT22;6042;41.326;19.826;2023-05-07T01:13:29;18.20;99.90
11965;DHT22;6042;41.326;19.826;2023-05-07T01:15:57;18.30;99.90
11965;DHT22;6042;41.326;19.826;2023-05-07T01:18:26;18.40;99.90
11965;DHT22;6042;41.326;19.826;2023-05-07T01:20:58;18.40;99.90
11965;DHT22;6042;41.326;19.826;2023-05-07T01:23:29;18.30;99.90
11965;DHT22;6042;41.326;19.826;2023-05-07T01:25:58;18.30;99.90
11965;DHT22;6042;41.326;19.826;2023-05-07T01:28:29;18.20;99.90
11965;DHT22;6042;41.326;19.826;2023-05-07T01:31:02;18.20;99.90
11965;DHT22;6042;41.326;19.826;2023-05-07T01:33:35;18.30;99.90
11965;DHT22;6042;41.326;19.826;2023-05-07T01:36:06;18.20;99.90
11965;DHT22;6042;41.326;19.826;2023-05-07T01:38:38;18.10;99.90
11965;DHT22;6042;41.326;19.826;2023-05-07T01:41:07;18.10;99.90
11965;DHT22;6042;41.326;19.826;2023-05-07T01:43:36;18.00;99.90
11965;DHT22;6042;41.326;19.826;2023-05-07T01:46:05;17.90;99.90
11965;DHT22;6042;41.326;19.826;2023-05-07T01:48:34;17.90;99.90
11965;DHT22;6042;41.326;19.826;2023-05-07T01:51:03;17.80;99.90
11965;DHT22;6042;41.326;19.826;2023-05-07T01:53:37;17.80;99.90
11965;DHT22;6042;41.326;19.826;2023-05-07T01:56:08;17.80;99.90
11965;DHT22;6042;41.326;19.826;2023-05-07T01:58:38;17.80;99.90
11965;DHT22;6042;41.326;19.826;2023-05-07T02:01:08;17.80;99.90
11965;DHT22;6042;41.326;19.826;2023-05-07T02:03:36;17.70;99.90
11965;DHT22;6042;41.326;19.826;2023-05-07T02:06:12;17.60;99.90
11965;DHT22;6042;41.326;19.826;2023-05-07T02:08:41;17.60;99.90
11965;DHT22;6042;41.326;19.826;2023-05-07T02:11:12;17.50;99.90
11965;DHT22;6042;41.326;19.826;2023-05-07T02:13:41;17.60;99.90
11965;DHT22;6042;41.326;19.826;2023-05-07T02:16:10;17.60;99.90
11965;DHT22;6042;41.326;19.826;2023-05-07T02:18:41;17.50;99.90
11965;DHT22;6042;41.326;19.826;2023-05-07T02:21:10;17.30;99.90
11965;DHT22;6042;41.326;19.826;2023-05-07T02:23:40;17.30;99.90
11965;DHT22;6042;41.326;19.826;2023-05-07T02:26:09;17.30;99.90
11965;DHT22;6042;41.326;19.826;2023-05-07T02:28:39;17.30;99.90
11965;DHT22;6042;41.326;19.826;2023-05-07T02:31:08;17.30;99.90
11965;DHT22;6042;41.326;19.826;2023-05-07T02:33:36;17.40;99.90
11965;DHT22;6042;41.326;19.826;2023-05-07T02:36:08;17.40;99.90
11965;DHT22;6042;41.326;19.826;2023-05-07T02:38:54;17.40;99.90
11965;DHT22;6042;41.326;19.826;2023-05-07T02:41:22;17.30;99.90
11965;DHT22;6042;41.326;19.826;2023-05-07T02:43:54;17.30;99.90
11965;DHT22;6042;41.326;19.826;2023-05-07T02:46:22;17.10;99.90
11965;DHT22;6042;41.326;19.826;2023-05-07T02:48:58;16.80;99.90
11965;DHT22;6042;41.326;19.826;2023-05-07T02:51:30;16.70;99.90
11965;DHT22;6042;41.326;19.826;2023-05-07T02:54:02;16.50;99.90
11965;DHT22;6042;41.326;19.826;2023-05-07T02:56:32;16.50;99.90
11965;DHT22;6042;41.326;19.826;2023-05-07T02:59:02;16.50;99.90
11965;DHT22;6042;41.326;19.826;2023-05-07T03:01:34;16.50;99.90
11965;DHT22;6042;41.326;19.826;2023-05-07T03:04:08;16.60;99.90
11965;DHT22;6042;41.326;19.826;2023-05-07T03:06:37;16.50;99.90
11965;DHT22;6042;41.326;19.826;2023-05-07T03:09:07;16.40;99.90
11965;DHT22;6042;41.326;19.826;2023-05-07T03:11:36;16.40;99.90
11965;DHT22;6042;41.326;19.826;2023-05-07T03:14:06;16.50;99.90
11965;DHT22;6042;41.326;19.826;2023-05-07T03:16:35;16.50;99.90
11965;DHT22;6042;41.326;19.826;2023-05-07T03:19:04;16.60;99.90
11965;DHT22;6042;41.326;19.826;2023-05-07T03:21:33;16.50;99.90
11965;DHT22;6042;41.326;19.826;2023-05-07T03:24:05;16.40;99.90
11965;DHT22;6042;41.326;19.826;2023-05-07T03:26:34;16.20;99.90
11965;DHT22;6042;41.326;19.826;2023-05-07T03:29:02;16.20;99.90
11965;DHT22;6042;41.326;19.826;2023-05-07T03:31:36;16.20;99.90
11965;DHT22;6042;41.326;19.826;2023-05-07T03:34:05;16.20;99.90
11965;DHT22;6042;41.326;19.826;2023-05-07T03:36:34;16.10;99.90
11965;DHT22;6042;41.326;19.826;2023-05-07T03:39:09;16.10;99.90
11965;DHT22;6042;41.326;19.826;2023-05-07T03:41:40;16.20;99.90
11965;DHT22;6042;41.326;19.826;2023-05-07T03:44:09;16.40;99.90
11965;DHT22;6042;41.326;19.826;2023-05-07T03:46:39;16.40;99.90
11965;DHT22;6042;41.326;19.826;2023-05-07T03:49:10;16.50;99.90
11965;DHT22;6042;41.326;19.826;2023-05-07T03:51:39;16.60;99.90
11965;DHT22;6042;41.326;19.826;2023-05-07T03:54:07;16.60;99.90
11965;DHT22;6042;41.326;19.826;2023-05-07T03:56:39;16.70;99.90
11965;DHT22;6042;41.326;19.826;2023-05-07T03:59:09;16.80;99.90
11965;DHT22;6042;41.326;19.826;2023-05-07T04:01:39;16.80;99.90
11965;DHT22;6042;41.326;19.826;2023-05-07T04:04:07;16.80;99.90
11965;DHT22;6042;41.326;19.826;2023-05-07T04:06:36;16.60;99.90
11965;DHT22;6042;41.326;19.826;2023-05-07T04:09:05;16.60;99.90
11965;DHT22;6042;41.326;19.826;2023-05-07T04:11:37;16.60;99.90
11965;DHT22;6042;41.326;19.826;2023-05-07T04:14:11;16.60;99.90
11965;DHT22;6042;41.326;19.826;2023-05-07T04:16:41;16.60;99.90
11965;DHT22;6042;41.326;19.826;2023-05-07T04:19:10;16.70;99.90
11965;DHT22;6042;41.326;19.826;2023-05-07T04:21:39;16.80;99.90
11965;DHT22;6042;41.326;19.826;2023-05-07T04:24:08;16.90;99.90
11965;DHT22;6042;41.326;19.826;2023-05-07T04:26:37;16.90;99.90
11965;DHT22;6042;41.326;19.826;2023-05-07T04:29:05;16.90;99.90
11965;DHT22;6042;41.326;19.826;2023-05-07T04:31:35;17.00;99.90
11965;DHT22;6042;41.326;19.826;2023-05-07T04:34:05;17.00;99.90
11965;DHT22;6042;41.326;19.826;2023-05-07T04:36:34;17.10;99.90
11965;DHT22;6042;41.326;19.826;2023-05-07T04:39:09;17.20;99.90
11965;DHT22;6042;41.326;19.826;2023-05-07T04:41:41;17.10;99.90
11965;DHT22;6042;41.326;19.826;2023-05-07T04:44:11;17.20;99.90
11965;DHT22;6042;41.326;19.826;2023-05-07T04:46:40;17.10;99.90
11965;DHT22;6042;41.326;19.826;2023-05-07T04:49:11;17.30;99.90
11965;DHT22;6042;41.326;19.826;2023-05-07T04:51:40;17.30;99.90
11965;DHT22;6042;41.326;19.826;2023-05-07T04:54:12;17.40;99.90
11965;DHT22;6042;41.326;19.826;2023-05-07T04:56:41;17.40;99.90
11965;DHT22;6042;41.326;19.826;2023-05-07T04:59:09;17.50;99.90
11965;DHT22;6042;41.326;19.826;2023-05-07T05:01:38;17.60;99.90
11965;DHT22;6042;41.326;19.826;2023-05-07T05:04:07;17.60;99.90
11965;DHT22;6042;41.326;19.826;2023-05-07T05:06:37;17.50;99.90
11965;DHT22;6042;41.326;19.826;2023-05-07T05:09:07;17.60;99.90
11965;DHT22;6042;41.326;19.826;2023-05-07T05:11:36;17.60;99.90
11965;DHT22;6042;41.326;19.826;2023-05-07T05:14:05;17.70;99.90
11965;DHT22;6042;41.326;19.826;2023-05-07T05:16:36;17.80;99.90
11965;DHT22;6042;41.326;19.826;2023-05-07T05:19:05;17.90;99.90
11965;DHT22;6042;41.326;19.826;2023-05-07T05:21:39;17.90;99.90
11965;DHT22;6042;41.326;19.826;2023-05-07T05:24:09;18.00;99.90
11965;DHT22;6042;41.326;19.826;2023-05-07T05:26:38;18.00;99.90
11965;DHT22;6042;41.326;19.826;2023-05-07T05:29:07;18.00;99.90
11965;DHT22;6042;41.326;19.826;2023-05-07T05:31:39;18.10;99.90
11965;DHT22;6042;41.326;19.826;2023-05-07T05:34:10;18.20;99.90
11965;DHT22;6042;41.326;19.826;2023-05-07T05:36:40;18.30;99.90
11965;DHT22;6042;41.326;19.826;2023-05-07T05:39:09;18.40;99.90
11965;DHT22;6042;41.326;19.826;2023-05-07T05:41:37;18.30;99.90
11965;DHT22;6042;41.326;19.826;2023-05-07T05:44:07;19.20;99.90
11965;DHT22;6042;41.326;19.826;2023-05-07T05:46:36;19.80;99.90
11965;DHT22;6042;41.326;19.826;2023-05-07T05:49:06;19.70;99.90
11965;DHT22;6042;41.326;19.826;2023-05-07T05:51:35;19.30;99.90
11965;DHT22;6042;41.326;19.826;2023-05-07T05:54:07;18.90;99.90
11965;DHT22;6042;41.326;19.826;2023-05-07T05:56:37;19.10;99.90
11965;DHT22;6042;41.326;19.826;2023-05-07T05:59:07;19.20;99.90
11965;DHT22;6042;41.326;19.826;2023-05-07T06:01:36;19.30;99.90
11965;DHT22;6042;41.326;19.826;2023-05-07T06:04:05;19.40;99.90
11965;DHT22;6042;41.326;19.826;2023-05-07T06:06:34;19.40;99.90
11965;DHT22;6042;41.326;19.826;2023-05-07T06:09:03;19.30;99.90
11965;DHT22;6042;41.326;19.826;2023-05-07T06:11:38;19.30;99.90
11965;DHT22;6042;41.326;19.826;2023-05-07T06:14:09;19.40;99.90
11965;DHT22;6042;41.326;19.826;2023-05-07T06:16:38;19.60;99.90
11965;DHT22;6042;41.326;19.826;2023-05-07T06:19:07;19.60;99.90
11965;DHT22;6042;41.326;19.826;2023-05-07T06:21:38;19.80;99.90
11965;DHT22;6042;41.326;19.826;2023-05-07T06:24:08;19.80;99.90
11965;DHT22;6042;41.326;19.826;2023-05-07T06:26:40;19.80;99.90
11965;DHT22;6042;41.326;19.826;2023-05-07T06:29:09;19.90;99.90
11965;DHT22;6042;41.326;19.826;2023-05-07T06:31:40;20.10;99.90
11965;DHT22;6042;41.326;19.826;2023-05-07T06:34:11;20.10;99.90
11965;DHT22;6042;41.326;19.826;2023-05-07T06:36:42;20.20;99.90
11965;DHT22;6042;41.326;19.826;2023-05-07T06:39:26;20.30;99.90
11965;DHT22;6042;41.326;19.826;2023-05-07T06:41:56;20.40;99.90
11965;DHT22;6042;41.326;19.826;2023-05-07T06:44:30;20.60;99.90
11965;DHT22;6042;41.326;19.826;2023-05-07T06:47:09;20.60;99.90
11965;DHT22;6042;41.326;19.826;2023-05-07T06:49:41;20.70;99.90
11965;DHT22;6042;41.326;19.826;2023-05-07T06:52:12;20.60;99.90
11965;DHT22;6042;41.326;19.826;2023-05-07T06:54:41;20.60;99.90
11965;DHT22;6042;41.326;19.826;2023-05-07T06:57:12;20.70;99.90
11965;DHT22;6042;41.326;19.826;2023-05-07T06:59:41;20.70;99.90
11965;DHT22;6042;41.326;19.826;2023-05-07T07:02:10;20.60;99.90
11965;DHT22;6042;41.326;19.826;2023-05-07T07:04:38;20.40;99.90
11965;DHT22;6042;41.326;19.826;2023-05-07T07:07:09;20.60;99.90
11965;DHT22;6042;41.326;19.826;2023-05-07T07:09:40;20.80;99.90
11965;DHT22;6042;41.326;19.826;2023-05-07T07:12:09;20.80;99.90
11965;DHT22;6042;41.326;19.826;2023-05-07T07:14:41;20.80;99.90
11965;DHT22;6042;41.326;19.826;2023-05-07T07:17:10;20.70;99.90
11965;DHT22;6042;41.326;19.826;2023-05-07T07:19:38;20.90;99.90
11965;DHT22;6042;41.326;19.826;2023-05-07T07:22:07;21.00;99.90
11965;DHT22;6042;41.326;19.826;2023-05-07T07:24:37;21.20;99.90
11965;DHT22;6042;41.326;19.826;2023-05-07T07:27:08;21.30;99.90
11965;DHT22;6042;41.326;19.826;2023-05-07T07:29:36;21.50;99.90
11965;DHT22;6042;41.326;19.826;2023-05-07T07:32:06;21.60;99.90
11965;DHT22;6042;41.326;19.826;2023-05-07T07:34:35;21.70;99.50
11965;DHT22;6042;41.326;19.826;2023-05-07T07:37:04;21.90;99.20
11965;DHT22;6042;41.326;19.826;2023-05-07T07:39:35;22.00;98.90
11965;DHT22;6042;41.326;19.826;2023-05-07T07:42:07;22.00;98.80
11965;DHT22;6042;41.326;19.826;2023-05-07T07:44:35;22.10;98.60
11965;DHT22;6042;41.326;19.826;2023-05-07T07:47:09;22.30;98.50
11965;DHT22;6042;41.326;19.826;2023-05-07T07:49:38;22.30;98.50
11965;DHT22;6042;41.326;19.826;2023-05-07T07:52:09;22.00;99.20
11965;DHT22;6042;41.326;19.826;2023-05-07T07:54:38;21.90;99.40
11965;DHT22;6042;41.326;19.826;2023-05-07T07:57:07;22.20;98.90
11965;DHT22;6042;41.326;19.826;2023-05-07T07:59:36;22.40;98.70
11965;DHT22;6042;41.326;19.826;2023-05-07T08:02:06;22.60;98.60
11965;DHT22;6042;41.326;19.826;2023-05-07T08:04:37;22.80;98.80
11965;DHT22;6042;41.326;19.826;2023-05-07T08:07:07;23.00;97.90
11965;DHT22;6042;41.326;19.826;2023-05-07T08:09:40;23.00;98.10
11965;DHT22;6042;41.326;19.826;2023-05-07T08:12:10;23.10;97.00
11965;DHT22;6042;41.326;19.826;2023-05-07T08:14:39;23.20;96.80
11965;DHT22;6042;41.326;19.826;2023-05-07T08:17:08;22.80;97.00
11965;DHT22;6042;41.326;19.826;2023-05-07T08:19:39;22.70;97.00
11965;DHT22;6042;41.326;19.826;2023-05-07T08:22:11;22.60;97.10
11965;DHT22;6042;41.326;19.826;2023-05-07T08:24:40;22.70;97.10
11965;DHT22;6042;41.326;19.826;2023-05-07T08:27:09;22.40;97.20
11965;DHT22;6042;41.326;19.826;2023-05-07T08:29:40;22.30;97.30
11965;DHT22;6042;41.326;19.826;2023-05-07T08:32:09;22.50;97.20
11965;DHT22;6042;41.326;19.826;2023-05-07T08:34:39;22.90;97.10
11965;DHT22;6042;41.326;19.826;2023-05-07T08:37:07;23.10;96.20
11965;DHT22;6042;41.326;19.826;2023-05-07T08:39:36;23.10;96.10
11965;DHT22;6042;41.326;19.826;2023-05-07T08:42:15;23.00;96.50
11965;DHT22;6042;41.326;19.826;2023-05-07T08:44:45;23.00;96.70
11965;DHT22;6042;41.326;19.826;2023-05-07T08:47:17;23.00;96.40
11965;DHT22;6042;41.326;19.826;2023-05-07T08:49:51;23.20;95.70
11965;DHT22;6042;41.326;19.826;2023-05-07T08:52:20;23.50;95.30
11965;DHT22;6042;41.326;19.826;2023-05-07T08:54:49;23.60;95.20
11965;DHT22;6042;41.326;19.826;2023-05-07T08:57:18;23.70;94.60
11965;DHT22;6042;41.326;19.826;2023-05-07T08:59:48;23.70;94.20
11965;DHT22;6042;41.326;19.826;2023-05-07T09:02:17;23.70;94.30
11965;DHT22;6042;41.326;19.826;2023-05-07T09:04:46;23.70;94.30
11965;DHT22;6042;41.326;19.826;2023-05-07T09:07:17;23.70;94.30
11965;DHT22;6042;41.326;19.826;2023-05-07T09:09:46;23.80;94.70
11965;DHT22;6042;41.326;19.826;2023-05-07T09:12:15;23.90;94.60
11965;DHT22;6042;41.326;19.826;2023-05-07T09:14:44;24.00;94.80
11965;DHT22;6042;41.326;19.826;2023-05-07T09:17:13;23.90;94.80
11965;DHT22;6042;41.326;19.826;2023-05-07T09:19:43;23.90;94.70
11965;DHT22;6042;41.326;19.826;2023-05-07T09:22:14;24.00;94.10
11965;DHT22;6042;41.326;19.826;2023-05-07T09:24:53;24.00;93.80
11965;DHT22;6042;41.326;19.826;2023-05-07T09:27:26;24.10;93.70
11965;DHT22;6042;41.326;19.826;2023-05-07T09:29:57;24.10;93.20
11965;DHT22;6042;41.326;19.826;2023-05-07T09:32:26;24.00;92.90
11965;DHT22;6042;41.326;19.826;2023-05-07T09:34:57;24.00;92.60
11965;DHT22;6042;41.326;19.826;2023-05-07T09:37:27;24.00;90.30
11965;DHT22;6042;41.326;19.826;2023-05-07T09:39:57;24.10;88.80
11965;DHT22;6042;41.326;19.826;2023-05-07T09:42:29;24.20;88.80
11965;DHT22;6042;41.326;19.826;2023-05-07T09:45:01;24.10;87.10
11965;DHT22;6042;41.326;19.826;2023-05-07T09:47:37;24.30;85.80
11965;DHT22;6042;41.326;19.826;2023-05-07T09:50:09;24.30;87.10
11965;DHT22;6042;41.326;19.826;2023-05-07T09:52:40;24.00;86.70
11965;DHT22;6042;41.326;19.826;2023-05-07T09:55:13;24.00;87.40
11965;DHT22;6042;41.326;19.826;2023-05-07T09:57:43;24.20;87.10
11965;DHT22;6042;41.326;19.826;2023-05-07T10:00:13;24.40;87.60
11965;DHT22;6042;41.326;19.826;2023-05-07T10:02:49;24.50;87.50
11965;DHT22;6042;41.326;19.826;2023-05-07T10:05:32;24.70;87.20
11965;DHT22;6042;41.326;19.826;2023-05-07T10:08:02;24.80;86.90
11965;DHT22;6042;41.326;19.826;2023-05-07T10:10:38;24.90;85.70
11965;DHT22;6042;41.326;19.826;2023-05-07T10:13:10;24.80;85.60
11965;DHT22;6042;41.326;19.826;2023-05-07T10:15:44;24.80;84.30
11965;DHT22;6042;41.326;19.826;2023-05-07T10:18:14;24.90;85.70
11965;DHT22;6042;41.326;19.826;2023-05-07T10:20:51;24.80;85.10
11965;DHT22;6042;41.326;19.826;2023-05-07T10:23:23;24.80;85.50
11965;DHT22;6042;41.326;19.826;2023-05-07T10:26:00;24.60;83.90
11965;DHT22;6042;41.326;19.826;2023-05-07T10:28:34;24.70;84.50
11965;DHT22;6042;41.326;19.826;2023-05-07T10:31:18;24.90;83.00
11965;DHT22;6042;41.326;19.826;2023-05-07T10:33:54;25.00;83.20
11965;DHT22;6042;41.326;19.826;2023-05-07T10:36:26;25.10;83.20
11965;DHT22;6042;41.326;19.826;2023-05-07T10:38:55;25.00;83.90
11965;DHT22;6042;41.326;19.826;2023-05-07T10:41:26;24.90;84.10
11965;DHT22;6042;41.326;19.826;2023-05-07T10:43:54;25.00;83.80
11965;DHT22;6042;41.326;19.826;2023-05-07T10:46:29;25.20;82.50
11965;DHT22;6042;41.326;19.826;2023-05-07T10:49:09;25.10;82.50
11965;DHT22;6042;41.326;19.826;2023-05-07T10:52:14;25.30;81.50
11965;DHT22;6042;41.326;19.826;2023-05-07T10:55:22;25.40;80.40
11965;DHT22;6042;41.326;19.826;2023-05-07T10:58:24;25.50;81.60
11965;DHT22;6042;41.326;19.826;2023-05-07T11:01:49;25.70;80.30
11965;DHT22;6042;41.326;19.826;2023-05-07T11:04:22;25.60;81.20
11965;DHT22;6042;41.326;19.826;2023-05-07T11:07:30;25.90;79.30
11965;DHT22;6042;41.326;19.826;2023-05-07T11:10:05;25.80;79.60
11965;DHT22;6042;41.326;19.826;2023-05-07T11:12:56;25.90;79.90
11965;DHT22;6042;41.326;19.826;2023-05-07T11:15:44;25.90;80.30
11965;DHT22;6042;41.326;19.826;2023-05-07T11:18:23;26.10;79.70
11965;DHT22;6042;41.326;19.826;2023-05-07T11:20:57;26.20;79.50
11965;DHT22;6042;41.326;19.826;2023-05-07T11:23:58;26.20;79.70
11965;DHT22;6042;41.326;19.826;2023-05-07T11:26:47;26.30;81.30
11965;DHT22;6042;41.326;19.826;2023-05-07T11:29:23;26.50;82.40
11965;DHT22;6042;41.326;19.826;2023-05-07T11:31:58;26.30;83.60
11965;DHT22;6042;41.326;19.826;2023-05-07T11:34:33;26.40;83.70
11965;DHT22;6042;41.326;19.826;2023-05-07T11:37:02;26.50;83.90
11965;DHT22;6042;41.326;19.826;2023-05-07T11:40:03;26.60;84.40
11965;DHT22;6042;41.326;19.826;2023-05-07T11:42:33;26.70;84.30
11965;DHT22;6042;41.326;19.826;2023-05-07T11:45:03;26.50;83.80
11965;DHT22;6042;41.326;19.826;2023-05-07T11:47:34;26.40;83.60
11965;DHT22;6042;41.326;19.826;2023-05-07T11:50:06;26.10;84.20
11965;DHT22;6042;41.326;19.826;2023-05-07T11:52:35;25.90;85.10
11965;DHT22;6042;41.326;19.826;2023-05-07T11:55:07;25.90;83.90
11965;DHT22;6042;41.326;19.826;2023-05-07T11:57:36;25.90;81.60
11965;DHT22;6042;41.326;19.826;2023-05-07T12:00:06;26.00;79.60
11965;DHT22;6042;41.326;19.826;2023-05-07T12:02:42;26.10;79.80
11965;DHT22;6042;41.326;19.826;2023-05-07T12:05:11;26.20;78.90
11965;DHT22;6042;41.326;19.826;2023-05-07T12:07:41;26.20;77.50
11965;DHT22;6042;41.326;19.826;2023-05-07T12:10:11;26.10;77.80
11965;DHT22;6042;41.326;19.826;2023-05-07T12:12:40;26.30;77.10
11965;DHT22;6042;41.326;19.826;2023-05-07T12:15:10;26.40;75.80
11965;DHT22;6042;41.326;19.826;2023-05-07T12:17:41;26.40;76.50
11965;DHT22;6042;41.326;19.826;2023-05-07T12:20:10;26.50;76.10
11965;DHT22;6042;41.326;19.826;2023-05-07T12:22:39;26.50;74.20
11965;DHT22;6042;41.326;19.826;2023-05-07T12:25:09;26.50;73.90
11965;DHT22;6042;41.326;19.826;2023-05-07T12:27:40;26.60;75.30
11965;DHT22;6042;41.326;19.826;2023-05-07T12:30:10;27.00;72.00
11965;DHT22;6042;41.326;19.826;2023-05-07T12:32:39;26.90;71.20
11965;DHT22;6042;41.326;19.826;2023-05-07T12:35:09;27.10;71.10
11965;DHT22;6042;41.326;19.826;2023-05-07T12:37:38;27.20;69.50
11965;DHT22;6042;41.326;19.826;2023-05-07T12:40:09;27.00;70.50
11965;DHT22;6042;41.326;19.826;2023-05-07T12:42:40;27.00;69.80
11965;DHT22;6042;41.326;19.826;2023-05-07T12:45:10;27.10;69.90
11965;DHT22;6042;41.326;19.826;2023-05-07T12:47:43;27.40;68.70
11965;DHT22;6042;41.326;19.826;2023-05-07T12:50:15;27.70;68.30
11965;DHT22;6042;41.326;19.826;2023-05-07T12:52:45;27.80;66.60
11965;DHT22;6042;41.326;19.826;2023-05-07T12:55:16;27.70;67.20
11965;DHT22;6042;41.326;19.826;2023-05-07T12:57:48;27.90;66.40
11965;DHT22;6042;41.326;19.826;2023-05-07T13:00:17;28.10;65.30
11965;DHT22;6042;41.326;19.826;2023-05-07T13:02:46;28.50;64.40
11965;DHT22;6042;41.326;19.826;2023-05-07T13:05:16;28.20;64.40
11965;DHT22;6042;41.326;19.826;2023-05-07T13:07:52;28.10;63.30
11965;DHT22;6042;41.326;19.826;2023-05-07T13:10:22;28.20;62.80
11965;DHT22;6042;41.326;19.826;2023-05-07T13:12:51;28.50;62.30
11965;DHT22;6042;41.326;19.826;2023-05-07T13:15:20;29.70;60.10
11965;DHT22;6042;41.326;19.826;2023-05-07T13:17:52;30.10;58.90
11965;DHT22;6042;41.326;19.826;2023-05-07T13:20:22;30.80;56.50
11965;DHT22;6042;41.326;19.826;2023-05-07T13:22:51;31.30;55.80
11965;DHT22;6042;41.326;19.826;2023-05-07T13:25:21;32.10;54.00
11965;DHT22;6042;41.326;19.826;2023-05-07T13:27:49;32.10;53.30
11965;DHT22;6042;41.326;19.826;2023-05-07T13:30:35;32.40;52.30
11965;DHT22;6042;41.326;19.826;2023-05-07T13:33:04;32.70;51.70
11965;DHT22;6042;41.326;19.826;2023-05-07T13:35:37;32.70;50.80
11965;DHT22;6042;41.326;19.826;2023-05-07T13:38:06;33.60;49.70
11965;DHT22;6042;41.326;19.826;2023-05-07T13:40:35;34.70;48.40
11965;DHT22;6042;41.326;19.826;2023-05-07T13:43:05;35.70;47.00
11965;DHT22;6042;41.326;19.826;2023-05-07T13:45:35;35.60;44.80
11965;DHT22;6042;41.326;19.826;2023-05-07T13:48:04;34.60;45.90
11965;DHT22;6042;41.326;19.826;2023-05-07T13:50:32;34.80;45.80
11965;DHT22;6042;41.326;19.826;2023-05-07T13:53:03;34.90;45.80
11965;DHT22;6042;41.326;19.826;2023-05-07T13:55:32;34.40;46.10
11965;DHT22;6042;41.326;19.826;2023-05-07T13:58:01;33.80;46.10
11965;DHT22;6042;41.326;19.826;2023-05-07T14:00:33;33.90;46.30
11965;DHT22;6042;41.326;19.826;2023-05-07T14:03:01;34.00;46.50
11965;DHT22;6042;41.326;19.826;2023-05-07T14:05:30;33.80;46.50
11965;DHT22;6042;41.326;19.826;2023-05-07T14:07:59;34.00;46.40
11965;DHT22;6042;41.326;19.826;2023-05-07T14:10:29;33.90;46.20
11965;DHT22;6042;41.326;19.826;2023-05-07T14:12:58;33.80;46.50
11965;DHT22;6042;41.326;19.826;2023-05-07T14:15:27;33.20;47.20
11965;DHT22;6042;41.326;19.826;2023-05-07T14:17:55;33.50;47.50
11965;DHT22;6042;41.326;19.826;2023-05-07T14:20:24;33.80;47.10
11965;DHT22;6042;41.326;19.826;2023-05-07T14:22:53;34.70;45.50
11965;DHT22;6042;41.326;19.826;2023-05-07T14:25:24;35.20;45.30
11965;DHT22;6042;41.326;19.826;2023-05-07T14:27:53;35.50;44.40
11965;DHT22;6042;41.326;19.826;2023-05-07T14:30:22;35.80;44.00
11965;DHT22;6042;41.326;19.826;2023-05-07T14:32:51;35.50;44.90
11965;DHT22;6042;41.326;19.826;2023-05-07T14:35:20;35.70;43.90
11965;DHT22;6042;41.326;19.826;2023-05-07T14:37:48;34.20;46.10
11965;DHT22;6042;41.326;19.826;2023-05-07T14:40:16;33.60;48.00
11965;DHT22;6042;41.326;19.826;2023-05-07T14:42:45;33.60;48.60
11965;DHT22;6042;41.326;19.826;2023-05-07T14:45:14;33.60;48.70
11965;DHT22;6042;41.326;19.826;2023-05-07T14:47:43;34.30;47.70
11965;DHT22;6042;41.326;19.826;2023-05-07T14:50:11;35.00;47.30
11965;DHT22;6042;41.326;19.826;2023-05-07T14:52:40;35.70;45.80
11965;DHT22;6042;41.326;19.826;2023-05-07T14:55:08;36.60;44.80
11965;DHT22;6042;41.326;19.826;2023-05-07T14:57:37;36.40;44.80
11965;DHT22;6042;41.326;19.826;2023-05-07T15:00:07;36.70;44.10
11965;DHT22;6042;41.326;19.826;2023-05-07T15:02:38;36.40;44.10
11965;DHT22;6042;41.326;19.826;2023-05-07T15:05:07;35.50;45.00
11965;DHT22;6042;41.326;19.826;2023-05-07T15:07:35;36.10;44.80
11965;DHT22;6042;41.326;19.826;2023-05-07T15:10:05;36.20;44.50
11965;DHT22;6042;41.326;19.826;2023-05-07T15:12:33;36.00;44.60
11965;DHT22;6042;41.326;19.826;2023-05-07T15:15:02;35.10;45.20
11965;DHT22;6042;41.326;19.826;2023-05-07T15:17:30;35.10;45.50
11965;DHT22;6042;41.326;19.826;2023-05-07T15:20:00;34.50;45.60
11965;DHT22;6042;41.326;19.826;2023-05-07T15:22:28;35.20;45.40
11965;DHT22;6042;41.326;19.826;2023-05-07T15:24:57;35.50;44.90
11965;DHT22;6042;41.326;19.826;2023-05-07T15:27:26;35.90;44.20
11965;DHT22;6042;41.326;19.826;2023-05-07T15:29:54;35.10;45.10
11965;DHT22;6042;41.326;19.826;2023-05-07T15:32:22;35.20;45.20
11965;DHT22;6042;41.326;19.826;2023-05-07T15:34:51;34.60;46.00
11965;DHT22;6042;41.326;19.826;2023-05-07T15:37:21;34.60;45.30
11965;DHT22;6042;41.326;19.826;2023-05-07T15:39:49;35.10;44.80
11965;DHT22;6042;41.326;19.826;2023-05-07T15:42:17;35.50;44.20
11965;DHT22;6042;41.326;19.826;2023-05-07T15:44:46;35.30;44.80
11965;DHT22;6042;41.326;19.826;2023-05-07T15:47:15;35.40;44.60
11965;DHT22;6042;41.326;19.826;2023-05-07T15:49:43;35.90;43.90
11965;DHT22;6042;41.326;19.826;2023-05-07T15:52:12;35.90;43.50
11965;DHT22;6042;41.326;19.826;2023-05-07T15:54:43;35.40;44.40